sensor_id;sensor_type;location;lat;lon;timestamp;temperature;humidity
21355;DHT22;10835;50.148;19.760;2023-12-22T00:02:57;14.20;59.60
21355;DHT22;10835;50.148;19.760;2023-12-22T00:05:59;13.90;59.60
21355;DHT22;10835;50.148;19.760;2023-12-22T00:09:01;13.90;59.20
21355;DHT22;10835;50.148;19.760;2023-12-22T00:12:05;13.50;60.20
21355;DHT22;10835;50.148;19.760;2023-12-22T00:15:07;13.80;59.10
21355;DHT22;10835;50.148;19.760;2023-12-22T00:18:10;14.00;58.50
21355;DHT22;10835;50.148;19.760;2023-12-22T00:21:12;13.90;58.50
21355;DHT22;10835;50.148;19.760;2023-12-22T00:24:14;13.80;58.50
21355;DHT22;10835;50.148;19.760;2023-12-22T00:27:17;14.20;57.70
21355;DHT22;10835;50.148;19.760;2023-12-22T00:30:20;14.50;57.50
21355;DHT22;10835;50.148;19.760;2023-12-22T00:33:22;14.10;56.60
21355;DHT22;10835;50.148;19.760;2023-12-22T00:36:24;13.20;59.10
21355;DHT22;10835;50.148;19.760;2023-12-22T00:39:26;13.80;58.70
21355;DHT22;10835;50.148;19.760;2023-12-22T00:42:29;14.40;57.90
21355;DHT22;10835;50.148;19.760;2023-12-22T00:45:32;14.20;57.50
21355;DHT22;10835;50.148;19.760;2023-12-22T00:48:34;13.80;58.20
21355;DHT22;10835;50.148;19.760;2023-12-22T00:51:36;13.80;58.20
21355;DHT22;10835;50.148;19.760;2023-12-22T00:54:38;13.50;57.90
21355;DHT22;10835;50.148;19.760;2023-12-22T00:57:42;13.20;59.40
21355;DHT22;10835;50.148;19.760;2023-12-22T01:00:44;13.90;57.60
21355;DHT22;10835;50.148;19.760;2023-12-22T01:03:46;14.20;55.90
21355;DHT22;10835;50.148;19.760;2023-12-22T01:06:48;14.10;55.80
21355;DHT22;10835;50.148;19.760;2023-12-22T01:09:50;13.60;57.10
21355;DHT22;10835;50.148;19.760;2023-12-22T01:12:56;14.30;56.00
21355;DHT22;10835;50.148;19.760;2023-12-22T01:15:59;13.80;56.80
21355;DHT22;10835;50.148;19.760;2023-12-22T01:19:01;13.80;57.10
21355;DHT22;10835;50.148;19.760;2023-12-22T01:22:03;13.60;57.50
21355;DHT22;10835;50.148;19.760;2023-12-22T01:25:05;13.20;58.10
21355;DHT22;10835;50.148;19.760;2023-12-22T01:28:02;13.30;57.80
21355;DHT22;10835;50.148;19.760;2023-12-22T01:30:58;13.60;56.70
21355;DHT22;10835;50.148;19.760;2023-12-22T01:34:00;14.30;55.90
21355;DHT22;10835;50.148;19.760;2023-12-22T01:37:02;13.90;56.30
21355;DHT22;10835;50.148;19.760;2023-12-22T01:40:05;14.10;56.20
21355;DHT22;10835;50.148;19.760;2023-12-22T01:43:08;14.50;56.20
21355;DHT22;10835;50.148;19.760;2023-12-22T01:46:15;14.70;55.70
21355;DHT22;10835;50.148;19.760;2023-12-22T01:49:17;14.60;54.70
21355;DHT22;10835;50.148;19.760;2023-12-22T01:52:20;14.70;53.80
21355;DHT22;10835;50.148;19.760;2023-12-22T01:55:22;14.60;54.60
21355;DHT22;10835;50.148;19.760;2023-12-22T01:58:26;15.30;53.10
21355;DHT22;10835;50.148;19.760;2023-12-22T02:01:32;16.00;51.80
21355;DHT22;10835;50.148;19.760;2023-12-22T02:04:35;15.90;50.80
21355;DHT22;10835;50.148;19.760;2023-12-22T02:07:38;15.80;50.60
21355;DHT22;10835;50.148;19.760;2023-12-22T02:10:41;16.30;50.50
21355;DHT22;10835;50.148;19.760;2023-12-22T02:13:44;16.30;50.60
21355;DHT22;10835;50.148;19.760;2023-12-22T02:16:53;15.70;52.40
21355;DHT22;10835;50.148;19.760;2023-12-22T02:19:58;15.90;51.80
21355;DHT22;10835;50.148;19.760;2023-12-22T02:23:02;16.10;51.80
21355;DHT22;10835;50.148;19.760;2023-12-22T02:26:09;16.60;50.50
21355;DHT22;10835;50.148;19.760;2023-12-22T02:29:13;15.70;51.90
21355;DHT22;10835;50.148;19.760;2023-12-22T02:32:22;15.10;52.70
21355;DHT22;10835;50.148;19.760;2023-12-22T02:35:26;14.50;54.50
21355;DHT22;10835;50.148;19.760;2023-12-22T02:38:31;14.20;54.90
21355;DHT22;10835;50.148;19.760;2023-12-22T02:41:36;14.70;54.10
21355;DHT22;10835;50.148;19.760;2023-12-22T02:44:38;14.80;53.30
21355;DHT22;10835;50.148;19.760;2023-12-22T02:47:40;13.80;55.40
21355;DHT22;10835;50.148;19.760;2023-12-22T02:50:42;13.60;56.70
21355;DHT22;10835;50.148;19.760;2023-12-22T02:53:45;13.80;56.20
21355;DHT22;10835;50.148;19.760;2023-12-22T02:56:48;14.20;55.30
21355;DHT22;10835;50.148;19.760;2023-12-22T02:59:50;14.10;55.10
21355;DHT22;10835;50.148;19.760;2023-12-22T03:02:52;14.50;54.90
21355;DHT22;10835;50.148;19.760;2023-12-22T03:05:54;14.50;53.90
21355;DHT22;10835;50.148;19.760;2023-12-22T03:08:57;14.30;54.10
21355;DHT22;10835;50.148;19.760;2023-12-22T03:12:00;14.00;55.10
21355;DHT22;10835;50.148;19.760;2023-12-22T03:15:02;14.20;54.50
21355;DHT22;10835;50.148;19.760;2023-12-22T03:18:05;14.10;54.20
21355;DHT22;10835;50.148;19.760;2023-12-22T03:21:07;14.00;54.30
21355;DHT22;10835;50.148;19.760;2023-12-22T03:24:10;14.20;54.10
21355;DHT22;10835;50.148;19.760;2023-12-22T03:27:16;14.10;53.70
21355;DHT22;10835;50.148;19.760;2023-12-22T03:30:11;14.20;53.20
21355;DHT22;10835;50.148;19.760;2023-12-22T03:33:07;13.60;54.20
21355;DHT22;10835;50.148;19.760;2023-12-22T03:36:09;13.60;54.20
21355;DHT22;10835;50.148;19.760;2023-12-22T03:39:12;13.50;53.70
21355;DHT22;10835;50.148;19.760;2023-12-22T03:42:15;13.60;53.80
21355;DHT22;10835;50.148;19.760;2023-12-22T03:45:17;13.00;54.00
21355;DHT22;10835;50.148;19.760;2023-12-22T03:48:19;13.00;53.60
21355;DHT22;10835;50.148;19.760;2023-12-22T03:51:21;13.30;53.80
21355;DHT22;10835;50.148;19.760;2023-12-22T03:54:24;13.30;53.40
21355;DHT22;10835;50.148;19.760;2023-12-22T03:57:27;12.80;54.10
21355;DHT22;10835;50.148;19.760;2023-12-22T04:00:29;12.70;54.90
21355;DHT22;10835;50.148;19.760;2023-12-22T04:03:31;13.20;54.10
21355;DHT22;10835;50.148;19.760;2023-12-22T04:06:33;12.80;54.00
21355;DHT22;10835;50.148;19.760;2023-12-22T04:09:40;12.10;54.50
21355;DHT22;10835;50.148;19.760;2023-12-22T04:12:43;11.80;55.00
21355;DHT22;10835;50.148;19.760;2023-12-22T04:15:45;11.80;55.00
21355;DHT22;10835;50.148;19.760;2023-12-22T04:18:47;12.60;52.90
21355;DHT22;10835;50.148;19.760;2023-12-22T04:21:49;12.80;52.10
21355;DHT22;10835;50.148;19.760;2023-12-22T04:24:52;12.70;52.20
21355;DHT22;10835;50.148;19.760;2023-12-22T04:27:55;12.80;52.20
21355;DHT22;10835;50.148;19.760;2023-12-22T04:30:50;12.80;52.60
21355;DHT22;10835;50.148;19.760;2023-12-22T04:33:45;13.20;52.00
21355;DHT22;10835;50.148;19.760;2023-12-22T04:36:47;13.50;51.20
21355;DHT22;10835;50.148;19.760;2023-12-22T04:39:49;13.80;50.90
21355;DHT22;10835;50.148;19.760;2023-12-22T04:42:52;13.90;50.50
21355;DHT22;10835;50.148;19.760;2023-12-22T04:45:55;14.80;50.30
21355;DHT22;10835;50.148;19.760;2023-12-22T04:48:57;15.20;48.70
21355;DHT22;10835;50.148;19.760;2023-12-22T04:51:59;15.20;47.80
21355;DHT22;10835;50.148;19.760;2023-12-22T04:55:01;14.00;50.10
21355;DHT22;10835;50.148;19.760;2023-12-22T04:58:04;13.60;51.10
21355;DHT22;10835;50.148;19.760;2023-12-22T05:01:07;12.90;52.00
21355;DHT22;10835;50.148;19.760;2023-12-22T05:04:09;12.50;53.50
21355;DHT22;10835;50.148;19.760;2023-12-22T05:07:11;12.80;53.90
21355;DHT22;10835;50.148;19.760;2023-12-22T05:10:13;12.60;54.90
21355;DHT22;10835;50.148;19.760;2023-12-22T05:13:16;12.50;55.80
21355;DHT22;10835;50.148;19.760;2023-12-22T05:16:19;11.90;58.30
21355;DHT22;10835;50.148;19.760;2023-12-22T05:19:22;11.10;60.00
21355;DHT22;10835;50.148;19.760;2023-12-22T05:22:24;10.40;63.10
21355;DHT22;10835;50.148;19.760;2023-12-22T05:25:26;10.10;65.20
21355;DHT22;10835;50.148;19.760;2023-12-22T05:28:29;10.30;64.90
21355;DHT22;10835;50.148;19.760;2023-12-22T05:31:32;10.60;63.80
21355;DHT22;10835;50.148;19.760;2023-12-22T05:34:34;10.40;65.10
21355;DHT22;10835;50.148;19.760;2023-12-22T05:37:36;10.40;64.50
21355;DHT22;10835;50.148;19.760;2023-12-22T05:40:38;10.50;64.70
21355;DHT22;10835;50.148;19.760;2023-12-22T05:43:41;10.10;64.90
21355;DHT22;10835;50.148;19.760;2023-12-22T05:46:44;10.10;65.70
21355;DHT22;10835;50.148;19.760;2023-12-22T05:49:46;10.40;66.40
21355;DHT22;10835;50.148;19.760;2023-12-22T05:52:48;10.10;64.60
21355;DHT22;10835;50.148;19.760;2023-12-22T05:55:50;10.10;64.90
21355;DHT22;10835;50.148;19.760;2023-12-22T05:58:53;10.10;64.60
21355;DHT22;10835;50.148;19.760;2023-12-22T06:01:56;10.20;64.20
21355;DHT22;10835;50.148;19.760;2023-12-22T06:04:51;9.90;65.70
21355;DHT22;10835;50.148;19.760;2023-12-22T06:07:47;10.50;62.40
21355;DHT22;10835;50.148;19.760;2023-12-22T06:10:49;10.50;62.10
21355;DHT22;10835;50.148;19.760;2023-12-22T06:13:52;10.80;60.70
21355;DHT22;10835;50.148;19.760;2023-12-22T06:16:55;10.50;60.50
21355;DHT22;10835;50.148;19.760;2023-12-22T06:19:57;10.90;60.00
21355;DHT22;10835;50.148;19.760;2023-12-22T06:22:52;10.70;59.60
21355;DHT22;10835;50.148;19.760;2023-12-22T06:25:54;11.10;59.30
21355;DHT22;10835;50.148;19.760;2023-12-22T06:28:58;11.00;59.00
21355;DHT22;10835;50.148;19.760;2023-12-22T06:32:01;10.90;59.70
21355;DHT22;10835;50.148;19.760;2023-12-22T06:35:03;10.90;59.70
21355;DHT22;10835;50.148;19.760;2023-12-22T06:38:06;10.90;59.00
21355;DHT22;10835;50.148;19.760;2023-12-22T06:41:18;10.20;60.10
21355;DHT22;10835;50.148;19.760;2023-12-22T06:44:22;9.70;62.30
21355;DHT22;10835;50.148;19.760;2023-12-22T06:47:25;9.80;62.20
21355;DHT22;10835;50.148;19.760;2023-12-22T06:50:27;10.00;61.60
21355;DHT22;10835;50.148;19.760;2023-12-22T06:53:30;9.90;61.30
21355;DHT22;10835;50.148;19.760;2023-12-22T06:56:34;10.40;59.70
21355;DHT22;10835;50.148;19.760;2023-12-22T06:59:38;10.70;59.30
21355;DHT22;10835;50.148;19.760;2023-12-22T07:02:42;10.70;58.50
21355;DHT22;10835;50.148;19.760;2023-12-22T07:05:37;10.20;59.10
21355;DHT22;10835;50.148;19.760;2023-12-22T07:08:32;9.90;58.80
21355;DHT22;10835;50.148;19.760;2023-12-22T07:11:36;9.90;59.20
21355;DHT22;10835;50.148;19.760;2023-12-22T07:14:39;10.20;58.30
21355;DHT22;10835;50.148;19.760;2023-12-22T07:17:42;10.60;58.10
21355;DHT22;10835;50.148;19.760;2023-12-22T07:20:44;10.60;58.20
21355;DHT22;10835;50.148;19.760;2023-12-22T07:23:46;11.30;57.70
21355;DHT22;10835;50.148;19.760;2023-12-22T07:26:48;11.70;56.30
21355;DHT22;10835;50.148;19.760;2023-12-22T07:29:52;11.50;56.00
21355;DHT22;10835;50.148;19.760;2023-12-22T07:32:54;11.80;56.20
21355;DHT22;10835;50.148;19.760;2023-12-22T07:35:58;11.90;56.30
21355;DHT22;10835;50.148;19.760;2023-12-22T07:39:00;12.00;56.40
21355;DHT22;10835;50.148;19.760;2023-12-22T07:42:04;11.80;55.90
21355;DHT22;10835;50.148;19.760;2023-12-22T07:45:08;11.90;56.00
21355;DHT22;10835;50.148;19.760;2023-12-22T07:48:11;12.50;55.80
21355;DHT22;10835;50.148;19.760;2023-12-22T07:51:13;12.80;55.40
21355;DHT22;10835;50.148;19.760;2023-12-22T07:54:15;13.40;54.20
21355;DHT22;10835;50.148;19.760;2023-12-22T07:57:17;13.60;53.50
21355;DHT22;10835;50.148;19.760;2023-12-22T08:00:21;13.80;53.20
21355;DHT22;10835;50.148;19.760;2023-12-22T08:03:23;14.30;53.50
21355;DHT22;10835;50.148;19.760;2023-12-22T08:06:25;14.90;52.60
21355;DHT22;10835;50.148;19.760;2023-12-22T08:09:27;14.30;51.80
21355;DHT22;10835;50.148;19.760;2023-12-22T08:12:29;14.20;53.30
21355;DHT22;10835;50.148;19.760;2023-12-22T08:15:33;14.20;52.70
21355;DHT22;10835;50.148;19.760;2023-12-22T08:18:36;14.20;52.90
21355;DHT22;10835;50.148;19.760;2023-12-22T08:21:38;14.50;52.30
21355;DHT22;10835;50.148;19.760;2023-12-22T08:24:40;13.80;53.00
21355;DHT22;10835;50.148;19.760;2023-12-22T08:27:42;14.10;53.30
21355;DHT22;10835;50.148;19.760;2023-12-22T08:30:46;14.90;52.70
21355;DHT22;10835;50.148;19.760;2023-12-22T08:33:48;15.70;51.80
21355;DHT22;10835;50.148;19.760;2023-12-22T08:36:50;16.10;50.60
21355;DHT22;10835;50.148;19.760;2023-12-22T08:39:52;16.20;49.70
21355;DHT22;10835;50.148;19.760;2023-12-22T08:42:54;16.90;48.50
21355;DHT22;10835;50.148;19.760;2023-12-22T08:45:58;16.60;49.10
21355;DHT22;10835;50.148;19.760;2023-12-22T08:49:00;17.20;48.60
21355;DHT22;10835;50.148;19.760;2023-12-22T08:52:03;18.30;47.50
21355;DHT22;10835;50.148;19.760;2023-12-22T08:55:06;18.50;46.80
21355;DHT22;10835;50.148;19.760;2023-12-22T08:58:08;18.60;45.90
21355;DHT22;10835;50.148;19.760;2023-12-22T09:01:15;18.00;46.60
21355;DHT22;10835;50.148;19.760;2023-12-22T09:04:18;18.20;46.10
21355;DHT22;10835;50.148;19.760;2023-12-22T09:07:20;18.60;46.00
21355;DHT22;10835;50.148;19.760;2023-12-22T09:10:22;17.20;46.40
21355;DHT22;10835;50.148;19.760;2023-12-22T09:13:24;17.10;47.50
21355;DHT22;10835;50.148;19.760;2023-12-22T09:16:28;15.20;50.30
21355;DHT22;10835;50.148;19.760;2023-12-22T09:19:32;14.10;53.60
21355;DHT22;10835;50.148;19.760;2023-12-22T09:22:34;13.40;55.00
21355;DHT22;10835;50.148;19.760;2023-12-22T09:25:36;12.50;57.10
21355;DHT22;10835;50.148;19.760;2023-12-22T09:28:38;11.90;59.60
21355;DHT22;10835;50.148;19.760;2023-12-22T09:31:42;12.40;59.80
21355;DHT22;10835;50.148;19.760;2023-12-22T09:34:44;12.30;59.90
21355;DHT22;10835;50.148;19.760;2023-12-22T09:37:46;13.00;57.70
21355;DHT22;10835;50.148;19.760;2023-12-22T09:40:48;12.60;58.70
21355;DHT22;10835;50.148;19.760;2023-12-22T09:43:52;13.30;57.70
21355;DHT22;10835;50.148;19.760;2023-12-22T09:46:59;13.10;57.60
21355;DHT22;10835;50.148;19.760;2023-12-22T09:50:03;13.60;56.90
21355;DHT22;10835;50.148;19.760;2023-12-22T09:53:08;13.70;57.50
21355;DHT22;10835;50.148;19.760;2023-12-22T09:56:11;14.40;55.80
21355;DHT22;10835;50.148;19.760;2023-12-22T09:59:13;14.30;55.60
21355;DHT22;10835;50.148;19.760;2023-12-22T10:02:18;14.30;54.90
21355;DHT22;10835;50.148;19.760;2023-12-22T10:05:20;13.80;56.70
21355;DHT22;10835;50.148;19.760;2023-12-22T10:08:23;14.20;55.20
21355;DHT22;10835;50.148;19.760;2023-12-22T10:11:26;14.40;55.20
21355;DHT22;10835;50.148;19.760;2023-12-22T10:14:29;14.70;54.00
21355;DHT22;10835;50.148;19.760;2023-12-22T10:17:34;15.20;53.60
21355;DHT22;10835;50.148;19.760;2023-12-22T10:20:36;15.20;52.60
21355;DHT22;10835;50.148;19.760;2023-12-22T10:23:38;15.50;53.10
21355;DHT22;10835;50.148;19.760;2023-12-22T10:26:40;15.40;53.40
21355;DHT22;10835;50.148;19.760;2023-12-22T10:29:43;15.10;53.70
21355;DHT22;10835;50.148;19.760;2023-12-22T10:32:47;15.20;53.10
21355;DHT22;10835;50.148;19.760;2023-12-22T10:35:42;14.90;53.10
21355;DHT22;10835;50.148;19.760;2023-12-22T10:38:46;14.40;54.20
21355;DHT22;10835;50.148;19.760;2023-12-22T10:41:48;14.40;54.70
21355;DHT22;10835;50.148;19.760;2023-12-22T10:44:50;14.40;55.10
21355;DHT22;10835;50.148;19.760;2023-12-22T10:47:54;14.50;54.70
21355;DHT22;10835;50.148;19.760;2023-12-22T10:50:57;14.20;54.90
21355;DHT22;10835;50.148;19.760;2023-12-22T10:53:59;14.00;55.40
21355;DHT22;10835;50.148;19.760;2023-12-22T10:57:01;13.60;56.40
21355;DHT22;10835;50.148;19.760;2023-12-22T11:00:05;14.00;55.70
21355;DHT22;10835;50.148;19.760;2023-12-22T11:03:16;13.60;56.00
21355;DHT22;10835;50.148;19.760;2023-12-22T11:06:20;13.70;55.60
21355;DHT22;10835;50.148;19.760;2023-12-22T11:09:23;13.80;55.60
21355;DHT22;10835;50.148;19.760;2023-12-22T11:12:27;13.70;55.40
21355;DHT22;10835;50.148;19.760;2023-12-22T11:15:31;14.10;55.30
21355;DHT22;10835;50.148;19.760;2023-12-22T11:18:36;14.30;54.00
21355;DHT22;10835;50.148;19.760;2023-12-22T11:21:43;13.90;54.40
21355;DHT22;10835;50.148;19.760;2023-12-22T11:24:47;12.40;57.80
21355;DHT22;10835;50.148;19.760;2023-12-22T11:27:50;11.00;61.30
21355;DHT22;10835;50.148;19.760;2023-12-22T11:30:54;10.60;63.10
21355;DHT22;10835;50.148;19.760;2023-12-22T11:34:00;10.40;65.20
21355;DHT22;10835;50.148;19.760;2023-12-22T11:37:06;10.90;65.10
21355;DHT22;10835;50.148;19.760;2023-12-22T11:40:10;11.10;63.50
21355;DHT22;10835;50.148;19.760;2023-12-22T11:43:13;11.40;63.00
21355;DHT22;10835;50.148;19.760;2023-12-22T11:46:16;12.70;60.30
21355;DHT22;10835;50.148;19.760;2023-12-22T11:49:20;13.00;58.80
21355;DHT22;10835;50.148;19.760;2023-12-22T11:52:32;13.20;58.30
21355;DHT22;10835;50.148;19.760;2023-12-22T11:55:56;13.90;57.30
21355;DHT22;10835;50.148;19.760;2023-12-22T11:58:59;13.40;56.80
21355;DHT22;10835;50.148;19.760;2023-12-22T12:02:01;13.20;57.30
21355;DHT22;10835;50.148;19.760;2023-12-22T12:05:07;13.80;57.60
21355;DHT22;10835;50.148;19.760;2023-12-22T12:08:10;14.40;55.60
21355;DHT22;10835;50.148;19.760;2023-12-22T12:11:12;14.50;55.20
21355;DHT22;10835;50.148;19.760;2023-12-22T12:14:14;14.50;55.10
21355;DHT22;10835;50.148;19.760;2023-12-22T12:17:10;13.70;55.70
21355;DHT22;10835;50.148;19.760;2023-12-22T12:20:09;13.30;57.10
21355;DHT22;10835;50.148;19.760;2023-12-22T12:23:12;12.90;57.60
21355;DHT22;10835;50.148;19.760;2023-12-22T12:26:14;12.80;58.40
21355;DHT22;10835;50.148;19.760;2023-12-22T12:29:18;12.60;58.50
21355;DHT22;10835;50.148;19.760;2023-12-22T12:32:23;12.90;57.90
21355;DHT22;10835;50.148;19.760;2023-12-22T12:35:27;12.40;58.60
21355;DHT22;10835;50.148;19.760;2023-12-22T12:38:40;12.50;59.70
21355;DHT22;10835;50.148;19.760;2023-12-22T12:41:53;13.10;58.00
21355;DHT22;10835;50.148;19.760;2023-12-22T12:44:55;13.80;57.10
21355;DHT22;10835;50.148;19.760;2023-12-22T12:47:58;15.00;54.90
21355;DHT22;10835;50.148;19.760;2023-12-22T12:51:03;15.70;53.80
21355;DHT22;10835;50.148;19.760;2023-12-22T12:54:06;16.10;52.40
21355;DHT22;10835;50.148;19.760;2023-12-22T12:57:14;16.20;52.30
21355;DHT22;10835;50.148;19.760;2023-12-22T13:00:16;16.20;51.90
21355;DHT22;10835;50.148;19.760;2023-12-22T13:03:18;16.40;51.10
21355;DHT22;10835;50.148;19.760;2023-12-22T13:06:22;16.90;50.90
21355;DHT22;10835;50.148;19.760;2023-12-22T13:09:31;17.40;49.30
21355;DHT22;10835;50.148;19.760;2023-12-22T13:12:34;16.40;50.10
21355;DHT22;10835;50.148;19.760;2023-12-22T13:15:40;16.10;49.70
21355;DHT22;10835;50.148;19.760;2023-12-22T13:18:36;15.40;51.60
21355;DHT22;10835;50.148;19.760;2023-12-22T13:21:33;14.90;51.60
21355;DHT22;10835;50.148;19.760;2023-12-22T13:24:35;14.10;52.30
21355;DHT22;10835;50.148;19.760;2023-12-22T13:27:44;12.80;53.30
21355;DHT22;10835;50.148;19.760;2023-12-22T13:30:47;11.90;55.50
21355;DHT22;10835;50.148;19.760;2023-12-22T13:33:49;11.30;56.70
21355;DHT22;10835;50.148;19.760;2023-12-22T13:36:52;10.70;59.10
21355;DHT22;10835;50.148;19.760;2023-12-22T13:39:55;10.20;62.10
21355;DHT22;10835;50.148;19.760;2023-12-22T13:42:57;10.20;63.00
21355;DHT22;10835;50.148;19.760;2023-12-22T13:46:01;10.50;62.60
21355;DHT22;10835;50.148;19.760;2023-12-22T13:49:03;10.60;62.20
21355;DHT22;10835;50.148;19.760;2023-12-22T13:52:07;10.80;62.10
21355;DHT22;10835;50.148;19.760;2023-12-22T13:55:10;11.30;60.60
21355;DHT22;10835;50.148;19.760;2023-12-22T13:58:13;11.70;59.30
21355;DHT22;10835;50.148;19.760;2023-12-22T14:01:15;11.20;57.40
21355;DHT22;10835;50.148;19.760;2023-12-22T14:04:18;10.80;57.20
21355;DHT22;10835;50.148;19.760;2023-12-22T14:07:21;11.30;57.40
21355;DHT22;10835;50.148;19.760;2023-12-22T14:10:24;11.80;54.80
21355;DHT22;10835;50.148;19.760;2023-12-22T14:13:26;11.50;53.00
21355;DHT22;10835;50.148;19.760;2023-12-22T14:16:30;11.70;51.80
21355;DHT22;10835;50.148;19.760;2023-12-22T14:19:32;11.00;52.00
21355;DHT22;10835;50.148;19.760;2023-12-22T14:22:35;10.20;53.50
21355;DHT22;10835;50.148;19.760;2023-12-22T14:25:38;10.90;53.80
21355;DHT22;10835;50.148;19.760;2023-12-22T14:28:33;10.90;52.70
21355;DHT22;10835;50.148;19.760;2023-12-22T14:31:28;11.80;52.50
21355;DHT22;10835;50.148;19.760;2023-12-22T14:34:30;12.10;51.80
21355;DHT22;10835;50.148;19.760;2023-12-22T14:37:32;13.10;51.50
21355;DHT22;10835;50.148;19.760;2023-12-22T14:40:35;13.10;49.80
21355;DHT22;10835;50.148;19.760;2023-12-22T14:43:38;12.70;50.30
21355;DHT22;10835;50.148;19.760;2023-12-22T14:46:40;11.70;51.30
21355;DHT22;10835;50.148;19.760;2023-12-22T14:49:42;11.60;52.30
21355;DHT22;10835;50.148;19.760;2023-12-22T14:52:44;12.10;51.10
21355;DHT22;10835;50.148;19.760;2023-12-22T14:55:47;11.80;50.00
21355;DHT22;10835;50.148;19.760;2023-12-22T14:58:51;11.50;50.80
21355;DHT22;10835;50.148;19.760;2023-12-22T15:01:53;11.50;51.10
21355;DHT22;10835;50.148;19.760;2023-12-22T15:04:55;11.60;49.60
21355;DHT22;10835;50.148;19.760;2023-12-22T15:07:58;11.20;48.80
21355;DHT22;10835;50.148;19.760;2023-12-22T15:11:02;10.60;50.60
21355;DHT22;10835;50.148;19.760;2023-12-22T15:14:05;10.80;51.80
21355;DHT22;10835;50.148;19.760;2023-12-22T15:17:07;11.40;51.10
21355;DHT22;10835;50.148;19.760;2023-12-22T15:20:11;12.00;49.40
21355;DHT22;10835;50.148;19.760;2023-12-22T15:23:13;12.00;49.40
21355;DHT22;10835;50.148;19.760;2023-12-22T15:26:21;11.70;49.90
21355;DHT22;10835;50.148;19.760;2023-12-22T15:29:24;11.50;49.60
21355;DHT22;10835;50.148;19.760;2023-12-22T15:32:26;11.40;50.00
21355;DHT22;10835;50.148;19.760;2023-12-22T15:35:28;12.00;49.70
21355;DHT22;10835;50.148;19.760;2023-12-22T15:38:30;12.10;49.30
21355;DHT22;10835;50.148;19.760;2023-12-22T15:41:33;11.40;49.40
21355;DHT22;10835;50.148;19.760;2023-12-22T15:44:39;11.30;50.00
21355;DHT22;10835;50.148;19.760;2023-12-22T15:47:41;11.40;49.60
21355;DHT22;10835;50.148;19.760;2023-12-22T15:50:43;11.40;49.90
21355;DHT22;10835;50.148;19.760;2023-12-22T15:53:38;11.60;49.60
21355;DHT22;10835;50.148;19.760;2023-12-22T15:56:35;12.30;48.70
21355;DHT22;10835;50.148;19.760;2023-12-22T15:59:38;12.40;48.20
21355;DHT22;10835;50.148;19.760;2023-12-22T16:02:40;13.20;47.70
21355;DHT22;10835;50.148;19.760;2023-12-22T16:05:42;13.50;46.40
21355;DHT22;10835;50.148;19.760;2023-12-22T16:08:44;12.80;46.80
21355;DHT22;10835;50.148;19.760;2023-12-22T16:11:47;12.60;47.90
21355;DHT22;10835;50.148;19.760;2023-12-22T16:14:52;13.50;47.30
21355;DHT22;10835;50.148;19.760;2023-12-22T16:17:54;14.00;46.50
21355;DHT22;10835;50.148;19.760;2023-12-22T16:20:56;14.20;45.40
21355;DHT22;10835;50.148;19.760;2023-12-22T16:23:58;13.10;46.40
21355;DHT22;10835;50.148;19.760;2023-12-22T16:27:01;12.10;48.00
21355;DHT22;10835;50.148;19.760;2023-12-22T16:30:05;11.90;48.60
21355;DHT22;10835;50.148;19.760;2023-12-22T16:33:08;11.90;48.30
21355;DHT22;10835;50.148;19.760;2023-12-22T16:36:10;12.00;48.30
21355;DHT22;10835;50.148;19.760;2023-12-22T16:39:14;11.80;48.30
21355;DHT22;10835;50.148;19.760;2023-12-22T16:42:17;11.40;48.50
21355;DHT22;10835;50.148;19.760;2023-12-22T16:45:21;11.70;49.50
21355;DHT22;10835;50.148;19.760;2023-12-22T16:48:23;12.30;48.30
21355;DHT22;10835;50.148;19.760;2023-12-22T16:51:25;12.60;47.50
21355;DHT22;10835;50.148;19.760;2023-12-22T16:54:27;12.60;46.00
21355;DHT22;10835;50.148;19.760;2023-12-22T16:57:30;12.40;47.80
21355;DHT22;10835;50.148;19.760;2023-12-22T17:00:34;12.40;47.10
21355;DHT22;10835;50.148;19.760;2023-12-22T17:03:56;11.60;47.50
21355;DHT22;10835;50.148;19.760;2023-12-22T17:06:59;11.40;48.40
21355;DHT22;10835;50.148;19.760;2023-12-22T17:10:02;11.40;48.00
21355;DHT22;10835;50.148;19.760;2023-12-22T17:13:06;11.20;48.70
21355;DHT22;10835;50.148;19.760;2023-12-22T17:16:09;11.50;48.80
21355;DHT22;10835;50.148;19.760;2023-12-22T17:19:11;11.70;48.70
21355;DHT22;10835;50.148;19.760;2023-12-22T17:22:13;11.80;48.10
21355;DHT22;10835;50.148;19.760;2023-12-22T17:25:15;12.00;48.60
21355;DHT22;10835;50.148;19.760;2023-12-22T17:28:18;12.30;47.90
21355;DHT22;10835;50.148;19.760;2023-12-22T17:31:21;12.40;48.30
21355;DHT22;10835;50.148;19.760;2023-12-22T17:34:23;13.20;47.30
21355;DHT22;10835;50.148;19.760;2023-12-22T17:37:25;13.40;46.40
21355;DHT22;10835;50.148;19.760;2023-12-22T17:40:27;12.60;47.40
21355;DHT22;10835;50.148;19.760;2023-12-22T17:43:31;12.90;47.90
21355;DHT22;10835;50.148;19.760;2023-12-22T17:46:33;12.10;48.50
21355;DHT22;10835;50.148;19.760;2023-12-22T17:49:35;11.70;49.50
21355;DHT22;10835;50.148;19.760;2023-12-22T17:52:37;11.60;50.10
21355;DHT22;10835;50.148;19.760;2023-12-22T17:55:39;11.40;50.10
21355;DHT22;10835;50.148;19.760;2023-12-22T17:58:42;10.80;51.60
21355;DHT22;10835;50.148;19.760;2023-12-22T18:01:45;11.40;51.70
21355;DHT22;10835;50.148;19.760;2023-12-22T18:04:48;11.40;50.70
21355;DHT22;10835;50.148;19.760;2023-12-22T18:07:50;11.20;51.10
21355;DHT22;10835;50.148;19.760;2023-12-22T18:10:52;10.80;52.40
21355;DHT22;10835;50.148;19.760;2023-12-22T18:13:55;10.50;53.90
21355;DHT22;10835;50.148;19.760;2023-12-22T18:16:58;10.40;53.70
21355;DHT22;10835;50.148;19.760;2023-12-22T18:20:00;10.80;53.40
21355;DHT22;10835;50.148;19.760;2023-12-22T18:23:02;11.20;52.60
21355;DHT22;10835;50.148;19.760;2023-12-22T18:26:04;11.30;51.80
21355;DHT22;10835;50.148;19.760;2023-12-22T18:29:07;10.80;53.20
21355;DHT22;10835;50.148;19.760;2023-12-22T18:32:10;10.90;53.10
21355;DHT22;10835;50.148;19.760;2023-12-22T18:35:12;11.10;52.60
21355;DHT22;10835;50.148;19.760;2023-12-22T18:38:18;12.10;51.30
21355;DHT22;10835;50.148;19.760;2023-12-22T18:41:13;12.20;50.80
21355;DHT22;10835;50.148;19.760;2023-12-22T18:44:10;11.10;51.90
21355;DHT22;10835;50.148;19.760;2023-12-22T18:47:13;11.50;52.00
21355;DHT22;10835;50.148;19.760;2023-12-22T18:50:15;11.70;51.00
21355;DHT22;10835;50.148;19.760;2023-12-22T18:53:17;12.10;50.30
21355;DHT22;10835;50.148;19.760;2023-12-22T18:56:19;12.20;49.80
21355;DHT22;10835;50.148;19.760;2023-12-22T18:59:23;11.60;49.90